createdAt,value
2023-04-14T00:02:42.811Z,4.00
2023-04-14T00:05:32.478Z,4.04
2023-04-14T00:08:17.824Z,4.06
2023-04-14T00:11:03.197Z,4.05
2023-04-14T00:13:48.486Z,4.06
2023-04-14T00:16:34.002Z,4.10
2023-04-14T00:19:19.330Z,4.12
2023-04-14T00:22:04.669Z,4.15
2023-04-14T00:24:50.935Z,4.20
2023-04-14T00:27:36.487Z,4.21
2023-04-14T00:30:21.891Z,4.23
2023-04-14T00:33:07.254Z,4.21
2023-04-14T00:35:52.535Z,4.16
2023-04-14T00:38:38.038Z,4.11
2023-04-14T00:41:24.875Z,4.11
2023-04-14T00:44:10.151Z,4.11
2023-04-14T00:46:57.236Z,4.08
2023-04-14T00:49:42.607Z,3.97
2023-04-14T00:52:28.176Z,3.84
2023-04-14T00:55:15.913Z,3.64
2023-04-14T00:58:02.102Z,3.46
2023-04-14T01:00:53.963Z,3.33
2023-04-14T01:03:39.592Z,3.16
2023-04-14T01:06:26.986Z,2.97
2023-04-14T01:09:12.691Z,2.90
2023-04-14T01:12:24.361Z,2.78
2023-04-14T01:15:52.440Z,2.71
2023-04-14T01:18:53.623Z,2.68
2023-04-14T01:21:43.933Z,2.63
2023-04-14T01:25:13.897Z,2.58
2023-04-14T01:28:10.896Z,2.52
2023-04-14T01:31:02.578Z,2.51
2023-04-14T01:34:11.918Z,2.55
2023-04-14T01:37:04.182Z,2.58
2023-04-14T01:39:52.544Z,2.55
2023-04-14T01:42:46.619Z,2.47
2023-04-14T01:45:41.997Z,2.38
2023-04-14T01:48:28.895Z,2.36
2023-04-14T01:51:19.452Z,2.29
2023-04-14T01:54:09.509Z,2.21
2023-04-14T01:56:57.163Z,2.06
2023-04-14T01:59:45.495Z,1.93
2023-04-14T02:02:33.252Z,1.78
2023-04-14T02:05:22.671Z,1.70
2023-04-14T02:08:12.784Z,1.69
2023-04-14T02:11:01.034Z,1.60
2023-04-14T02:13:50.098Z,1.55
2023-04-14T02:16:38.309Z,1.55
2023-04-14T02:19:25.510Z,1.46
2023-04-14T02:22:11.290Z,1.35
2023-04-14T02:24:57.058Z,1.22
2023-04-14T02:28:01.214Z,1.32
2023-04-14T02:30:51.821Z,1.40
2023-04-14T02:33:39.565Z,1.40
2023-04-14T02:36:34.367Z,1.37
2023-04-14T02:39:26.309Z,1.42
2023-04-14T02:42:15.602Z,1.46
2023-04-14T02:45:05.474Z,1.46
2023-04-14T02:47:55.534Z,1.41
2023-04-14T02:50:49.092Z,1.36
2023-04-14T02:53:37.764Z,1.32
2023-04-14T02:56:35.787Z,1.37
2023-04-14T02:59:22.296Z,1.43
2023-04-14T03:02:17.806Z,1.44
2023-04-14T03:05:09.590Z,1.51
2023-04-14T03:08:18.700Z,1.56
2023-04-14T03:11:08.363Z,1.58
2023-04-14T03:13:56.575Z,1.58
2023-04-14T03:16:43.827Z,1.58
2023-04-14T03:19:32.014Z,1.56
2023-04-14T03:22:20.845Z,1.57
2023-04-14T03:25:09.309Z,1.54
2023-04-14T03:27:59.575Z,1.61
2023-04-14T03:30:51.632Z,1.68
2023-04-14T03:33:39.480Z,1.84
2023-04-14T03:36:31.370Z,2.00
2023-04-14T03:39:20.368Z,2.10
2023-04-14T03:42:08.399Z,2.17
2023-04-14T03:44:56.306Z,2.16
2023-04-14T03:47:42.136Z,2.07
2023-04-14T03:50:31.562Z,1.91
2023-04-14T03:53:19.529Z,1.77
2023-04-14T03:56:07.149Z,1.69
2023-04-14T03:58:56.039Z,1.60
2023-04-14T04:01:42.752Z,1.43
2023-04-14T04:04:29.117Z,1.27
2023-04-14T04:07:17.625Z,1.17
2023-04-14T04:10:06.779Z,1.16
2023-04-14T04:12:54.086Z,1.17
2023-04-14T04:15:41.475Z,1.10
2023-04-14T04:18:31.957Z,0.99
2023-04-14T04:21:18.805Z,0.90
2023-04-14T04:24:06.755Z,0.80
2023-04-14T04:26:54.445Z,0.76
2023-04-14T04:29:40.567Z,0.62
2023-04-14T04:32:27.243Z,0.42
2023-04-14T04:35:13.282Z,0.30
2023-04-14T04:38:01.938Z,0.27
2023-04-14T04:40:48.943Z,0.28
2023-04-14T04:43:42.161Z,0.22
2023-04-14T04:46:53.831Z,0.12
2023-04-14T04:49:43.493Z,0.14
2023-04-14T04:52:28.795Z,0.11
2023-04-14T04:55:14.011Z,0.04
2023-04-14T04:57:59.415Z,0.02
2023-04-14T05:00:44.867Z,0.10
2023-04-14T05:03:30.254Z,0.18
2023-04-14T05:06:16.705Z,0.18
2023-04-14T05:09:02.381Z,0.11
2023-04-14T05:11:48.304Z,0.00
2023-04-14T05:14:33.485Z,-0.09
2023-04-14T05:17:19.020Z,-0.04
2023-04-14T05:20:05.801Z,0.12
2023-04-14T05:22:51.212Z,0.22
2023-04-14T05:25:36.735Z,0.29
2023-04-14T05:28:22.378Z,0.41
2023-04-14T05:31:07.859Z,0.43
2023-04-14T05:33:53.432Z,0.34
2023-04-14T05:36:38.797Z,0.13
2023-04-14T05:39:24.359Z,-0.01
2023-04-14T05:42:09.635Z,-0.11
2023-04-14T05:44:55.225Z,-0.19
2023-04-14T05:47:40.490Z,-0.25
2023-04-14T05:50:26.115Z,-0.27
2023-04-14T05:53:12.766Z,-0.21
2023-04-14T05:55:59.077Z,-0.23
2023-04-14T05:58:44.633Z,-0.23
2023-04-14T06:01:30.077Z,-0.27
2023-04-14T06:04:16.141Z,-0.29
2023-04-14T06:07:03.143Z,-0.30
2023-04-14T06:09:48.546Z,-0.30
2023-04-14T06:12:34.211Z,-0.27
2023-04-14T06:15:19.959Z,-0.26
2023-04-14T06:18:05.685Z,-0.21
2023-04-14T06:20:51.257Z,-0.13
2023-04-14T06:23:36.664Z,-0.08
2023-04-14T06:26:22.506Z,0.05
2023-04-14T06:29:08.133Z,0.17
2023-04-14T06:31:54.938Z,0.26
2023-04-14T06:34:41.383Z,0.34
2023-04-14T06:37:26.969Z,0.42
2023-04-14T06:40:12.477Z,0.60
2023-04-14T06:42:58.026Z,0.80
2023-04-14T06:45:43.479Z,0.92
2023-04-14T06:48:29.038Z,1.00
2023-04-14T06:51:14.585Z,1.04
2023-04-14T06:54:00.435Z,1.10
2023-04-14T06:56:46.449Z,1.20
2023-04-14T06:59:31.979Z,1.38
2023-04-14T07:02:17.440Z,1.94
2023-04-14T07:05:03.030Z,2.72
2023-04-14T07:07:48.604Z,3.42
2023-04-14T07:10:34.050Z,3.76
2023-04-14T07:13:19.372Z,3.70
2023-04-14T07:16:08.707Z,3.59
2023-04-14T07:18:54.410Z,3.45
2023-04-14T07:21:39.751Z,3.40
2023-04-14T07:24:25.549Z,3.37
2023-04-14T07:27:15.664Z,3.37
2023-04-14T07:30:01.533Z,3.38
2023-04-14T07:32:48.160Z,3.40
2023-04-14T07:35:33.983Z,3.45
2023-04-14T07:38:20.435Z,3.56
2023-04-14T07:41:06.886Z,3.64
2023-04-14T07:43:55.692Z,3.78
2023-04-14T07:46:41.568Z,4.05
2023-04-14T07:49:27.123Z,4.33
2023-04-14T07:52:12.960Z,4.65
2023-04-14T07:54:58.276Z,4.98
2023-04-14T07:57:43.593Z,5.25
2023-04-14T08:00:28.818Z,5.41
2023-04-14T08:03:14.363Z,5.51
2023-04-14T08:06:00.029Z,5.61
2023-04-14T08:08:45.590Z,5.67
2023-04-14T08:11:31.301Z,5.73
2023-04-14T08:14:16.687Z,5.83
2023-04-14T08:17:02.517Z,5.92
2023-04-14T08:19:47.954Z,6.00
2023-04-14T08:22:33.252Z,6.07
2023-04-14T08:25:18.634Z,6.15
2023-04-14T08:28:04.446Z,6.21
2023-04-14T08:30:50.441Z,6.34
2023-04-14T08:33:36.309Z,6.46
2023-04-14T08:36:22.191Z,6.63
2023-04-14T08:39:07.979Z,6.88
2023-04-14T08:41:53.983Z,7.10
2023-04-14T08:44:39.333Z,7.29
2023-04-14T08:47:30.781Z,7.46
2023-04-14T08:50:18.750Z,7.62
2023-04-14T08:53:08.678Z,7.72
2023-04-14T08:55:57.993Z,7.74
2023-04-14T08:58:45.150Z,7.67
2023-04-14T09:01:32.621Z,7.72
2023-04-14T09:04:21.234Z,7.79
2023-04-14T09:07:07.826Z,7.87
2023-04-14T09:09:53.882Z,7.95
2023-04-14T09:12:41.994Z,7.94
2023-04-14T09:15:29.201Z,7.88
2023-04-14T09:18:14.807Z,7.89
2023-04-14T09:21:29.984Z,7.88
2023-04-14T09:24:06.697Z,7.95
2023-04-14T09:26:53.016Z,8.05
2023-04-14T09:29:39.144Z,8.19
2023-04-14T09:32:25.401Z,8.35
2023-04-14T09:35:13.978Z,8.45
2023-04-14T09:37:59.598Z,8.45
2023-04-14T09:40:45.180Z,8.46
2023-04-14T09:43:30.746Z,8.49
2023-04-14T09:46:16.505Z,8.50
2023-04-14T09:49:05.233Z,8.41
2023-04-14T09:51:54.203Z,8.53
2023-04-14T09:54:40.295Z,8.65
2023-04-14T09:57:28.606Z,8.82
2023-04-14T10:00:18.182Z,8.92
2023-04-14T10:03:07.182Z,9.01
2023-04-14T10:05:53.093Z,9.21
2023-04-14T10:08:41.401Z,9.30
2023-04-14T10:11:32.902Z,9.35
2023-04-14T10:14:18.700Z,9.43
2023-04-14T10:17:04.355Z,9.43
2023-04-14T10:19:50.236Z,9.38
2023-04-14T10:22:36.418Z,9.29
2023-04-14T10:25:21.869Z,9.36
2023-04-14T10:28:07.786Z,9.33
2023-04-14T10:30:56.462Z,9.10
2023-04-14T10:33:42.730Z,9.13
2023-04-14T10:36:32.734Z,9.29
2023-04-14T10:39:25.123Z,9.45
2023-04-14T10:42:10.469Z,9.68
2023-04-14T10:45:05.910Z,9.67
2023-04-14T10:47:51.822Z,9.53
2023-04-14T10:50:48.956Z,9.63
2023-04-14T10:53:38.037Z,9.71
2023-04-14T10:56:25.132Z,9.93
2023-04-14T10:59:10.787Z,10.00
2023-04-14T11:01:57.423Z,9.76
2023-04-14T11:05:08.860Z,9.53
2023-04-14T11:08:03.212Z,9.27
2023-04-14T11:10:52.352Z,9.31
2023-04-14T11:13:38.881Z,9.71
2023-04-14T11:16:29.172Z,10.08
2023-04-14T11:19:15.570Z,10.40
2023-04-14T11:22:00.997Z,10.33
2023-04-14T11:24:46.609Z,10.00
2023-04-14T11:27:32.775Z,9.79
2023-04-14T11:30:19.526Z,9.93
2023-04-14T11:33:05.038Z,10.23
2023-04-14T11:35:51.363Z,10.57
2023-04-14T11:38:40.830Z,10.80
2023-04-14T11:41:26.461Z,10.74
2023-04-14T11:44:17.915Z,10.38
2023-04-14T11:47:04.492Z,10.50
2023-04-14T11:49:49.699Z,10.56
2023-04-14T11:52:35.133Z,10.47
2023-04-14T11:55:20.438Z,10.66
2023-04-14T11:58:05.821Z,11.03
2023-04-14T12:00:53.642Z,10.89
2023-04-14T12:03:41.821Z,10.81
2023-04-14T12:06:27.922Z,10.43
2023-04-14T12:09:13.330Z,10.86
2023-04-14T12:11:58.816Z,11.37
2023-04-14T12:14:46.803Z,11.58
2023-04-14T12:17:32.778Z,11.33
2023-04-14T12:20:18.830Z,10.81
2023-04-14T12:23:04.905Z,10.95
2023-04-14T12:25:51.551Z,11.54
2023-04-14T12:28:39.162Z,11.90
2023-04-14T12:31:30.058Z,11.86
2023-04-14T12:34:18.204Z,11.73
2023-04-14T12:37:08.674Z,11.63
2023-04-14T12:40:00.516Z,11.40
2023-04-14T12:42:51.714Z,10.94
2023-04-14T12:45:48.882Z,10.77
2023-04-14T12:48:47.093Z,10.87
2023-04-14T12:51:39.420Z,10.84
2023-04-14T12:54:24.855Z,10.96
2023-04-14T12:57:10.681Z,11.09
2023-04-14T12:59:56.348Z,11.18
2023-04-14T13:02:43.492Z,11.18
2023-04-14T13:05:30.486Z,11.18
2023-04-14T13:08:15.954Z,11.14
2023-04-14T13:11:01.458Z,11.07
2023-04-14T13:13:47.410Z,11.08
2023-04-14T13:16:33.507Z,11.06
2023-04-14T13:19:19.527Z,10.93
2023-04-14T13:22:04.735Z,11.03
2023-04-14T13:24:50.290Z,10.95
2023-04-14T13:27:36.007Z,10.95
2023-04-14T13:30:21.289Z,11.40
2023-04-14T13:33:06.964Z,12.03
2023-04-14T13:35:53.187Z,12.54
2023-04-14T13:38:38.808Z,12.85
2023-04-14T13:41:24.681Z,13.10
2023-04-14T13:44:10.224Z,13.55
2023-04-14T13:46:56.247Z,13.87
2023-04-14T13:49:41.677Z,13.93
2023-04-14T13:52:26.956Z,14.22
2023-04-14T13:55:12.618Z,14.42
2023-04-14T13:57:58.183Z,14.56
2023-04-14T14:00:43.627Z,14.37
2023-04-14T14:03:30.751Z,13.68
2023-04-14T14:06:19.041Z,13.57
2023-04-14T14:09:06.462Z,13.67
2023-04-14T14:11:52.132Z,13.98
2023-04-14T14:14:38.130Z,13.99
2023-04-14T14:17:24.430Z,14.26
2023-04-14T14:20:10.733Z,14.83
2023-04-14T14:22:56.183Z,14.71
2023-04-14T14:25:42.253Z,14.62
2023-04-14T14:28:27.785Z,14.48
2023-04-14T14:31:14.966Z,14.23
2023-04-14T14:34:00.874Z,14.25
2023-04-14T14:36:49.542Z,13.70
2023-04-14T14:39:34.893Z,13.75
2023-04-14T14:42:20.337Z,13.67
2023-04-14T14:45:09.499Z,14.06
2023-04-14T14:47:57.740Z,14.26
2023-04-14T14:50:44.394Z,14.38
2023-04-14T14:53:31.869Z,13.97
2023-04-14T14:56:18.456Z,13.75
2023-04-14T14:59:04.242Z,14.18
2023-04-14T15:01:49.713Z,14.72
2023-04-14T15:04:35.452Z,14.89
2023-04-14T15:07:20.912Z,15.27
2023-04-14T15:10:07.334Z,15.15
2023-04-14T15:12:54.038Z,15.23
2023-04-14T15:15:39.697Z,15.28
2023-04-14T15:18:25.071Z,15.34
2023-04-14T15:21:13.588Z,14.66
2023-04-14T15:23:59.969Z,14.35
2023-04-14T15:26:45.922Z,14.63
2023-04-14T15:29:31.708Z,14.40
2023-04-14T15:32:17.423Z,13.99
2023-04-14T15:35:02.994Z,14.16
2023-04-14T15:37:48.660Z,14.17
2023-04-14T15:40:33.871Z,13.94
2023-04-14T15:43:19.229Z,14.25
2023-04-14T15:46:04.605Z,14.88
2023-04-14T15:48:52.667Z,14.90
2023-04-14T15:51:43.422Z,14.92
2023-04-14T15:54:30.054Z,15.01
2023-04-14T15:57:16.883Z,15.09
2023-04-14T16:00:04.912Z,15.32
2023-04-14T16:02:57.748Z,15.20
2023-04-14T16:05:43.013Z,15.33
2023-04-14T16:08:28.982Z,15.27
2023-04-14T16:11:18.191Z,14.49
2023-04-14T16:14:04.182Z,14.02
2023-04-14T16:16:49.760Z,13.57
2023-04-14T16:19:34.991Z,13.29
2023-04-14T16:22:20.502Z,13.27
2023-04-14T16:25:07.089Z,13.17
2023-04-14T16:27:53.607Z,13.18
2023-04-14T16:30:39.292Z,13.50
2023-04-14T16:33:24.906Z,14.12
2023-04-14T16:36:10.268Z,14.38
2023-04-14T16:38:55.562Z,14.35
2023-04-14T16:41:41.120Z,14.32
2023-04-14T16:44:26.840Z,14.24
2023-04-14T16:47:12.083Z,14.19
2023-04-14T16:49:57.541Z,14.21
2023-04-14T16:52:43.024Z,14.17
2023-04-14T16:55:29.092Z,14.12
2023-04-14T16:58:14.881Z,14.20
2023-04-14T17:01:01.363Z,14.41
2023-04-14T17:03:47.054Z,14.61
2023-04-14T17:06:32.812Z,14.47
2023-04-14T17:09:18.291Z,14.51
2023-04-14T17:12:07.079Z,14.22
2023-04-14T17:14:52.745Z,13.98
2023-04-14T17:17:38.115Z,13.46
2023-04-14T17:20:23.500Z,13.01
2023-04-14T17:23:09.532Z,12.64
2023-04-14T17:25:56.136Z,12.15
2023-04-14T17:28:41.903Z,11.89
2023-04-14T17:31:27.667Z,11.57
2023-04-14T17:34:13.110Z,11.53
2023-04-14T17:36:59.846Z,11.36
2023-04-14T17:39:45.990Z,11.14
2023-04-14T17:42:32.411Z,10.93
2023-04-14T17:45:22.949Z,10.86
2023-04-14T17:48:09.439Z,10.88
2023-04-14T17:50:55.204Z,10.98
2023-04-14T17:53:41.632Z,11.04
2023-04-14T17:56:27.915Z,11.04
2023-04-14T17:59:13.346Z,11.06
2023-04-14T18:01:58.896Z,11.05
2023-04-14T18:04:44.705Z,11.05
2023-04-14T18:07:31.340Z,10.88
2023-04-14T18:10:18.020Z,10.81
2023-04-14T18:13:03.546Z,10.76
2023-04-14T18:15:49.952Z,10.70
2023-04-14T18:18:35.554Z,10.64
2023-04-14T18:21:21.097Z,10.52
2023-04-14T18:26:57.251Z,10.35
2023-04-14T18:29:42.809Z,10.31
2023-04-14T18:32:30.229Z,10.31
2023-04-14T18:35:16.014Z,10.29
2023-04-14T18:38:01.825Z,10.35
2023-04-14T18:40:50.600Z,10.39
2023-04-14T18:43:36.187Z,10.29
2023-04-14T18:46:21.937Z,10.25
2023-04-14T18:49:07.537Z,10.15
2023-04-14T18:51:53.900Z,10.04
2023-04-14T18:54:39.548Z,9.88
2023-04-14T18:57:25.366Z,9.76
2023-04-14T19:00:13.464Z,9.67
2023-04-14T19:02:59.222Z,9.55
2023-04-14T19:05:45.002Z,9.47
2023-04-14T19:08:30.689Z,9.38
2023-04-14T19:11:16.245Z,9.29
2023-04-14T19:14:05.799Z,9.20
2023-04-14T19:16:51.693Z,9.11
2023-04-14T19:19:37.068Z,9.07
2023-04-14T19:22:22.455Z,9.00
2023-04-14T19:25:08.731Z,8.92
2023-04-14T19:27:53.913Z,8.85
2023-04-14T19:30:39.444Z,8.76
2023-04-14T19:33:26.821Z,8.67
2023-04-14T19:36:14.232Z,8.64
2023-04-14T19:39:00.287Z,8.63
2023-04-14T19:41:46.097Z,8.61
2023-04-14T19:44:32.324Z,8.61
2023-04-14T19:47:17.774Z,8.63
2023-04-14T19:50:04.469Z,8.63
2023-04-14T19:52:52.042Z,8.56
2023-04-14T19:55:37.896Z,8.47
2023-04-14T19:58:24.808Z,8.34
2023-04-14T20:01:11.402Z,8.22
2023-04-14T20:04:05.457Z,8.12
2023-04-14T20:06:57.282Z,8.00
2023-04-14T20:09:46.725Z,7.91
2023-04-14T20:12:32.477Z,7.85
2023-04-14T20:15:18.318Z,7.77
2023-04-14T20:18:04.748Z,7.70
2023-04-14T20:20:50.471Z,7.61
2023-04-14T20:23:35.697Z,7.54
2023-04-14T20:26:21.601Z,7.51
2023-04-14T20:29:06.797Z,7.51
2023-04-14T20:31:53.548Z,7.45
2023-04-14T20:34:39.562Z,7.37
2023-04-14T20:37:25.193Z,7.32
2023-04-14T20:40:10.883Z,7.24
2023-04-14T20:42:56.550Z,7.13
2023-04-14T20:45:42.055Z,7.04
2023-04-14T20:48:27.639Z,6.99
2023-04-14T20:51:13.783Z,6.95
2023-04-14T20:53:59.108Z,6.91
2023-04-14T20:56:45.066Z,6.93
2023-04-14T20:59:30.540Z,6.98
2023-04-14T21:02:16.654Z,7.01
2023-04-14T21:05:02.267Z,7.01
2023-04-14T21:07:47.974Z,6.94
2023-04-14T21:10:33.772Z,6.89
2023-04-14T21:15:26.654Z,6.85
2023-04-14T21:16:24.598Z,6.86
2023-04-14T21:19:10.488Z,6.90
2023-04-14T21:21:56.509Z,6.91
2023-04-14T21:24:46.798Z,6.88
2023-04-14T21:27:32.482Z,6.86
2023-04-14T21:30:18.170Z,6.83
2023-04-14T21:33:06.903Z,6.79
2023-04-14T21:35:57.126Z,6.69
2023-04-14T21:38:42.398Z,6.58
2023-04-14T21:41:27.707Z,6.46
2023-04-14T21:44:15.705Z,6.33
2023-04-14T21:47:01.417Z,6.28
2023-04-14T21:49:47.035Z,6.25
2023-04-14T21:52:32.523Z,6.19
2023-04-14T21:55:17.974Z,6.14
2023-04-14T21:58:04.725Z,6.08
2023-04-14T22:00:53.717Z,5.98
2023-04-14T22:03:41.290Z,5.92
2023-04-14T22:06:30.061Z,5.81
2023-04-14T22:09:15.820Z,5.79
2023-04-14T22:12:01.281Z,5.74
2023-04-14T22:14:46.914Z,5.70
2023-04-14T22:17:32.988Z,5.67
2023-04-14T22:20:18.323Z,5.67
2023-04-14T22:23:03.905Z,5.64
2023-04-14T22:25:49.304Z,5.62
2023-04-14T22:28:34.585Z,5.59
2023-04-14T22:31:20.096Z,5.50
2023-04-14T22:34:05.435Z,5.48
2023-04-14T22:36:51.366Z,5.41
2023-04-14T22:39:36.939Z,5.35
2023-04-14T22:42:22.554Z,5.28
2023-04-14T22:45:08.378Z,5.19
2023-04-14T22:47:53.730Z,5.18
2023-04-14T22:50:39.426Z,5.16
2023-04-14T22:53:24.939Z,5.21
2023-04-14T22:56:10.369Z,5.23
2023-04-14T22:58:59.565Z,5.24
2023-04-14T23:01:44.848Z,5.20
2023-04-14T23:04:31.556Z,5.19
2023-04-14T23:07:16.886Z,5.18
2023-04-14T23:10:02.308Z,5.11
2023-04-14T23:12:47.795Z,5.01
2023-04-14T23:15:33.282Z,4.91
2023-04-14T23:18:19.336Z,4.75
2023-04-14T23:21:10.111Z,4.62
2023-04-14T23:23:56.001Z,4.58
2023-04-14T23:26:41.859Z,4.60
2023-04-14T23:29:27.661Z,4.57
2023-04-14T23:32:13.400Z,4.51
2023-04-14T23:34:58.841Z,4.46
2023-04-14T23:37:44.792Z,4.40
2023-04-14T23:40:32.227Z,4.30
2023-04-14T23:43:17.860Z,4.25
2023-04-14T23:46:03.399Z,4.24
2023-04-14T23:48:49.568Z,4.26
2023-04-14T23:51:35.147Z,4.26
2023-04-14T23:54:20.925Z,4.28
2023-04-14T23:57:06.759Z,4.24
2023-04-14T23:59:53.002Z,4.28
